createdAt,value
2022-08-31T15:09:13.855Z,0.80
2022-08-31T15:11:41.366Z,0.70
2022-08-31T15:14:14.117Z,0.75
2022-08-31T15:16:46.699Z,0.77
2022-08-31T15:19:15.453Z,0.70
2022-08-31T15:21:51.809Z,0.60
2022-08-31T15:24:24.973Z,0.80
2022-08-31T15:26:54.732Z,0.70
2022-08-31T15:29:24.977Z,0.60
2022-08-31T15:31:55.211Z,0.80
2022-08-31T15:34:30.438Z,0.88
2022-08-31T15:37:01.401Z,0.73
2022-08-31T15:39:37.504Z,0.70
2022-08-31T15:42:09.444Z,0.60
2022-08-31T15:44:38.034Z,0.50
2022-08-31T15:47:25.698Z,0.70
2022-08-31T15:49:53.241Z,0.68
2022-08-31T15:52:20.835Z,0.57
2022-08-31T15:54:48.663Z,0.70
2022-08-31T15:57:16.219Z,0.80
2022-08-31T15:59:44.116Z,0.77
2022-08-31T16:02:14.073Z,0.60
2022-08-31T16:04:46.236Z,0.50
2022-08-31T16:07:14.313Z,0.70
2022-08-31T16:09:46.293Z,0.63
2022-08-31T16:12:15.568Z,0.73
2022-08-31T16:14:46.365Z,0.57
2022-08-31T16:19:48.139Z,0.60
2022-08-31T16:22:17.151Z,0.60
2022-08-31T16:24:47.029Z,0.50
2022-08-31T16:27:17.391Z,0.68
2022-08-31T16:29:46.266Z,0.70
2022-08-31T16:32:13.853Z,0.60
2022-08-31T16:34:42.798Z,0.60
2022-08-31T16:37:10.656Z,0.70
2022-08-31T16:39:41.799Z,0.70
2022-08-31T16:42:13.632Z,0.52
2022-08-31T16:44:46.919Z,0.60
2022-08-31T16:47:17.344Z,0.68
2022-08-31T16:49:46.014Z,0.73
2022-08-31T16:52:18.297Z,0.60
2022-08-31T16:54:48.668Z,0.75
2022-08-31T16:57:20.872Z,0.60
2022-08-31T16:59:49.296Z,0.80
2022-08-31T17:02:18.830Z,0.77
2022-08-31T17:04:54.600Z,1.10
2022-08-31T17:07:24.616Z,1.20
2022-08-31T17:09:57.345Z,1.30
2022-08-31T17:12:26.873Z,1.40
2022-08-31T17:14:56.149Z,1.25
2022-08-31T17:17:25.841Z,1.20
2022-08-31T17:19:56.190Z,1.27
2022-08-31T17:22:32.535Z,1.30
2022-08-31T17:25:03.216Z,1.10
2022-08-31T17:27:33.406Z,1.23
2022-08-31T17:30:05.447Z,0.98
2022-08-31T17:32:33.910Z,1.42
2022-08-31T17:35:03.981Z,1.42
2022-08-31T17:37:38.128Z,1.10
2022-08-31T17:40:08.283Z,1.33
2022-08-31T17:42:36.211Z,1.40
2022-08-31T17:45:05.931Z,1.30
2022-08-31T17:47:34.030Z,1.20
2022-08-31T17:50:01.957Z,1.40
2022-08-31T17:52:30.172Z,1.20
2022-08-31T17:55:00.051Z,1.40
2022-08-31T17:57:30.902Z,1.23
2022-08-31T18:02:32.678Z,1.02
2022-08-31T18:05:01.761Z,0.90
2022-08-31T18:07:30.280Z,1.35
2022-08-31T18:09:58.127Z,1.10
2022-08-31T18:12:25.891Z,1.00
2022-08-31T18:14:54.337Z,1.10
2022-08-31T18:17:22.564Z,1.20
2022-08-31T18:19:50.420Z,1.10
2022-08-31T18:22:20.002Z,0.95
2022-08-31T18:24:48.497Z,1.40
2022-08-31T18:27:16.017Z,1.08
2022-08-31T18:29:44.758Z,1.00
2022-08-31T18:32:13.149Z,1.10
2022-08-31T18:34:47.630Z,1.33
2022-08-31T18:37:25.927Z,1.20
2022-08-31T18:40:12.078Z,1.10
2022-08-31T18:42:58.260Z,1.27
2022-08-31T18:45:30.956Z,1.30
2022-08-31T18:48:23.696Z,1.20
2022-08-31T18:50:49.955Z,1.20
2022-08-31T18:56:12.194Z,1.05
2022-08-31T18:58:41.798Z,1.00
2022-08-31T19:01:13.405Z,0.90
2022-08-31T19:03:41.786Z,1.05
2022-08-31T19:06:19.917Z,1.05
2022-08-31T19:08:48.217Z,1.00
2022-08-31T19:11:16.613Z,1.05
2022-08-31T19:13:46.419Z,0.80
2022-08-31T19:16:25.621Z,1.20
2022-08-31T19:18:57.717Z,1.10
2022-08-31T19:21:31.227Z,0.90
2022-08-31T19:24:01.253Z,1.13
2022-08-31T19:26:37.905Z,1.20
2022-08-31T19:29:09.645Z,1.20
2022-08-31T19:31:41.028Z,1.20
2022-08-31T19:34:09.197Z,1.30
2022-08-31T19:36:38.672Z,1.30
2022-08-31T19:39:10.659Z,1.30
2022-08-31T19:41:49.321Z,1.08
2022-08-31T19:44:18.039Z,1.48
2022-08-31T19:46:54.380Z,1.10
2022-08-31T19:49:23.023Z,1.35
2022-08-31T19:51:56.276Z,1.10
2022-08-31T19:54:26.263Z,1.02
2022-08-31T19:56:54.659Z,1.40
2022-08-31T19:59:24.312Z,1.30
2022-08-31T20:01:54.573Z,1.17
2022-08-31T20:04:27.244Z,1.30
2022-08-31T20:06:56.794Z,1.20
2022-08-31T20:09:25.537Z,1.20
2022-08-31T20:11:54.927Z,1.10
2022-08-31T20:14:23.813Z,1.20
2022-08-31T20:16:52.337Z,1.27
2022-08-31T20:19:25.210Z,1.00
2022-08-31T20:21:55.206Z,1.10
2022-08-31T20:24:25.598Z,1.30
2022-08-31T20:26:57.422Z,1.20
2022-08-31T20:29:24.963Z,1.33
2022-08-31T20:31:52.871Z,1.08
2022-08-31T20:34:22.495Z,1.30
2022-08-31T20:36:58.530Z,1.35
2022-08-31T20:39:31.806Z,1.02
2022-08-31T20:42:00.322Z,1.10
2022-08-31T20:44:38.236Z,1.15
2022-08-31T20:47:27.752Z,1.20
2022-08-31T20:50:01.004Z,1.10
2022-08-31T20:52:32.030Z,1.15
2022-08-31T20:55:02.830Z,1.13
2022-08-31T21:00:04.651Z,1.20
2022-08-31T21:02:33.852Z,0.95
2022-08-31T21:05:26.770Z,1.05
2022-08-31T21:07:49.664Z,1.10
2022-08-31T21:10:20.954Z,1.00
2022-08-31T21:13:01.162Z,1.00
2022-08-31T21:15:29.447Z,1.10
2022-08-31T21:17:58.074Z,1.00
2022-08-31T21:20:26.536Z,1.02
2022-08-31T21:22:54.341Z,1.00
2022-08-31T21:25:21.802Z,1.02
2022-08-31T21:27:49.241Z,1.08
2022-08-31T21:30:18.892Z,1.13
2022-08-31T21:32:46.882Z,0.85
2022-08-31T21:35:15.367Z,0.98
2022-08-31T21:37:42.853Z,1.20
2022-08-31T21:40:11.115Z,1.00
2022-08-31T21:42:38.683Z,0.90
2022-08-31T21:45:07.515Z,1.30
2022-08-31T21:47:35.071Z,0.82
2022-08-31T21:50:02.702Z,1.00
2022-08-31T21:52:30.181Z,1.08
2022-08-31T21:54:57.657Z,1.30
2022-08-31T21:57:25.780Z,1.20
2022-08-31T21:59:53.299Z,1.42
2022-08-31T22:02:20.779Z,1.88
2022-08-31T22:04:48.250Z,1.20
2022-08-31T22:07:15.698Z,1.27
2022-08-31T22:09:43.769Z,1.45
2022-08-31T22:12:15.092Z,1.27
2022-08-31T22:14:44.874Z,1.20
2022-08-31T22:17:13.158Z,1.20
2022-08-31T22:19:43.115Z,1.50
2022-08-31T22:22:13.106Z,1.50
2022-08-31T22:24:41.592Z,1.20
2022-08-31T22:27:12.085Z,1.20
2022-08-31T22:29:40.761Z,1.13
2022-08-31T22:32:15.269Z,1.50
2022-08-31T22:34:46.083Z,1.27
2022-08-31T22:37:14.350Z,1.20
2022-08-31T22:39:42.663Z,1.35
2022-08-31T22:42:12.123Z,1.20
2022-08-31T22:44:40.693Z,1.15
2022-08-31T22:47:08.134Z,1.45
2022-08-31T22:49:35.653Z,1.50
2022-08-31T22:52:03.385Z,0.90
2022-08-31T22:54:31.004Z,1.20
2022-08-31T22:56:58.477Z,1.27
2022-08-31T22:59:27.807Z,1.20
2022-08-31T23:02:03.679Z,1.30
2022-08-31T23:04:33.733Z,1.08
2022-08-31T23:07:03.807Z,1.08
2022-08-31T23:09:34.045Z,1.30
2022-08-31T23:12:05.297Z,1.30
2022-08-31T23:14:33.313Z,0.95
2022-08-31T23:17:04.177Z,1.10
2022-08-31T23:19:37.216Z,0.90
2022-08-31T23:22:11.332Z,1.00
2022-08-31T23:24:44.976Z,1.10
2022-08-31T23:27:15.008Z,0.93
2022-08-31T23:29:47.265Z,0.80
2022-08-31T23:32:18.223Z,0.88
2022-08-31T23:37:14.330Z,1.10
2022-08-31T23:39:45.163Z,1.20
2022-08-31T23:42:14.031Z,1.13
2022-08-31T23:44:43.742Z,1.00
2022-08-31T23:47:18.172Z,0.90
2022-08-31T23:49:46.111Z,0.90
2022-08-31T23:52:18.769Z,0.98
2022-08-31T23:54:47.280Z,1.13
2022-08-31T23:57:32.369Z,0.90
